Time;durP1;ratioP1;P1;durP2;ratioP2;P2;SDS_P1;SDS_P2;PMS_P1;PMS_P2;Temp;Humidity;BMP_temperature;BMP_pressure;BME280_temperature;BME280_humidity;BME280_pressure;Samples;Min_cycle;Max_cycle;Signal;HPM_P1;HPM_P2
2023/12/15 00:02:24;;;;;;;3.85;2.67;;;;;;;;;;5036757;28;20037;-86
2023/12/15 00:04:49;;;;;;;4.22;2.70;;;;;;;;;;5035332;28;20029;-86
2023/12/15 00:07:15;;;;;;;4.38;2.92;;;;;;;;;;5029913;28;20041;-87
2023/12/15 00:09:40;;;;;;;4.43;3.03;;;;;;;;;;5034786;28;20522;-86
2023/12/15 00:12:06;;;;;;;4.15;3.03;;;;;;;;;;5038800;28;20512;-86
2023/12/15 00:14:31;;;;;;;4.20;2.88;;;;;;;;;;5040756;28;20029;-87
2023/12/15 00:16:57;;;;;;;4.32;2.97;;;;;;;;;;5022860;28;20033;-86
2023/12/15 00:19:22;;;;;;;4.28;2.80;;;;;;;;;;5018989;28;20036;-85
2023/12/15 00:21:48;;;;;;;3.80;2.83;;;;;;;;;;5033840;28;20045;-85
2023/12/15 00:24:13;;;;;;;4.15;2.75;;;;;;;;;;5035710;28;20063;-86
2023/12/15 00:26:39;;;;;;;4.53;2.72;;;;;;;;;;5030681;28;20172;-86
2023/12/15 00:29:04;;;;;;;3.13;2.50;;;;;;;;;;5031514;28;20487;-86
2023/12/15 00:31:30;;;;;;;4.50;2.90;;;;;;;;;;5031830;28;20033;-86
2023/12/15 00:33:56;;;;;;;3.28;2.58;;;;;;;;;;5032591;28;20061;-85
2023/12/15 00:36:21;;;;;;;3.92;3.10;;;;;;;;;;5031650;28;20059;-85
2023/12/15 00:38:47;;;;;;;3.75;3.00;;;;;;;;;;5035685;28;20037;-85
2023/12/15 00:41:12;;;;;;;4.85;3.40;;;;;;;;;;5032410;28;20034;-86
2023/12/15 00:43:38;;;;;;;4.95;3.35;;;;;;;;;;5020628;28;20043;-86
2023/12/15 00:46:04;;;;;;;5.93;3.65;;;;;;;;;;5029695;28;20052;-85
2023/12/15 00:48:29;;;;;;;7.15;3.90;;;;;;;;;;5010314;28;20045;-86
2023/12/15 00:50:55;;;;;;;6.15;4.03;;;;;;;;;;5013517;28;20033;-85
2023/12/15 00:53:20;;;;;;;7.50;4.43;;;;;;;;;;5030163;28;20044;-84
2023/12/15 00:55:46;;;;;;;9.10;4.38;;;;;;;;;;5027804;28;20034;-86
2023/12/15 00:58:13;;;;;;;7.78;4.57;;;;;;;;;;5031936;28;20112;-86
2023/12/15 01:00:39;;;;;;;4.90;3.17;;;;;;;;;;5033353;28;20037;-86
2023/12/15 01:03:05;;;;;;;5.28;3.60;;;;;;;;;;5014414;28;20113;-86
2023/12/15 01:05:30;;;;;;;7.90;3.70;;;;;;;;;;5015678;28;20599;-85
2023/12/15 01:07:56;;;;;;;4.40;3.20;;;;;;;;;;5035151;28;20057;-86
2023/12/15 01:10:21;;;;;;;4.38;3.30;;;;;;;;;;5032343;28;20072;-85
2023/12/15 01:12:47;;;;;;;3.60;2.70;;;;;;;;;;5029339;28;20504;-85
2023/12/15 01:15:12;;;;;;;4.03;2.70;;;;;;;;;;5032656;28;20033;-85
2023/12/15 01:17:38;;;;;;;4.95;2.85;;;;;;;;;;5033575;28;20051;-85
2023/12/15 01:20:04;;;;;;;3.22;2.42;;;;;;;;;;5038043;28;20082;-86
2023/12/15 01:22:30;;;;;;;4.40;2.80;;;;;;;;;;5035718;28;20084;-86
2023/12/15 01:24:55;;;;;;;3.38;2.17;;;;;;;;;;5031347;28;20041;-87
2023/12/15 01:27:20;;;;;;;2.58;1.70;;;;;;;;;;5028226;28;20100;-84
2023/12/15 01:29:46;;;;;;;2.10;1.60;;;;;;;;;;5017809;28;20030;-86
2023/12/15 01:32:11;;;;;;;2.28;1.80;;;;;;;;;;5027983;28;20064;-87
2023/12/15 01:34:37;;;;;;;3.70;2.70;;;;;;;;;;5031156;28;20476;-85
2023/12/15 01:37:02;;;;;;;4.43;2.95;;;;;;;;;;5014660;28;20037;-86
2023/12/15 01:39:28;;;;;;;4.85;2.90;;;;;;;;;;5022589;28;20025;-86
2023/12/15 01:41:53;;;;;;;3.50;2.40;;;;;;;;;;5030826;28;20064;-86
2023/12/15 01:44:19;;;;;;;2.53;1.92;;;;;;;;;;5032553;28;20033;-85
2023/12/15 01:46:44;;;;;;;3.30;2.15;;;;;;;;;;5009834;28;20413;-86
2023/12/15 01:49:10;;;;;;;3.50;2.05;;;;;;;;;;5028155;28;20164;-86
2023/12/15 01:51:35;;;;;;;2.90;2.00;;;;;;;;;;5010992;28;20026;-86
2023/12/15 01:54:01;;;;;;;3.17;2.10;;;;;;;;;;5010330;28;20116;-85
2023/12/15 01:56:26;;;;;;;3.08;2.08;;;;;;;;;;5032450;28;20033;-87
2023/12/15 01:58:52;;;;;;;2.30;1.77;;;;;;;;;;5014151;28;20456;-85
2023/12/15 02:01:17;;;;;;;2.40;1.70;;;;;;;;;;5034965;28;20037;-85
2023/12/15 02:03:43;;;;;;;2.55;1.75;;;;;;;;;;5031727;28;20582;-86
2023/12/15 02:06:08;;;;;;;3.10;1.83;;;;;;;;;;5028861;28;20586;-85
2023/12/15 02:08:34;;;;;;;2.40;1.80;;;;;;;;;;5026776;28;20034;-85
2023/12/15 02:10:59;;;;;;;2.90;1.83;;;;;;;;;;5010603;28;20120;-86
2023/12/15 02:13:25;;;;;;;2.58;1.80;;;;;;;;;;5031957;28;20092;-87
2023/12/15 02:15:50;;;;;;;4.85;1.80;;;;;;;;;;5032090;28;20087;-86
2023/12/15 02:18:16;;;;;;;2.05;1.65;;;;;;;;;;5029009;28;20515;-86
2023/12/15 02:20:41;;;;;;;2.95;1.90;;;;;;;;;;5037923;28;20037;-86
2023/12/15 02:23:07;;;;;;;2.50;1.83;;;;;;;;;;5030549;28;20036;-86
2023/12/15 02:25:32;;;;;;;2.50;1.80;;;;;;;;;;5018312;28;20025;-86
2023/12/15 02:27:58;;;;;;;3.20;1.90;;;;;;;;;;5034415;28;20120;-85
2023/12/15 02:30:23;;;;;;;3.13;2.08;;;;;;;;;;5011436;28;20037;-86
2023/12/15 02:32:49;;;;;;;3.55;2.33;;;;;;;;;;5028316;28;20073;-85
2023/12/15 02:35:14;;;;;;;3.78;2.50;;;;;;;;;;5030993;28;20125;-86
2023/12/15 02:37:40;;;;;;;3.40;2.50;;;;;;;;;;5028920;28;20606;-84
2023/12/15 02:40:06;;;;;;;3.33;2.60;;;;;;;;;;5028072;28;20041;-85
2023/12/15 02:42:32;;;;;;;3.70;2.60;;;;;;;;;;5036135;28;20030;-86
2023/12/15 02:45:00;;;;;;;3.85;2.85;;;;;;;;;;5019088;28;20037;-86
2023/12/15 02:47:25;;;;;;;3.95;2.85;;;;;;;;;;5020212;28;20033;-86
2023/12/15 02:49:50;;;;;;;6.47;3.38;;;;;;;;;;5012441;28;20033;-85
2023/12/15 02:52:16;;;;;;;5.40;3.20;;;;;;;;;;5034494;28;20506;-87
2023/12/15 02:54:41;;;;;;;4.60;3.20;;;;;;;;;;5033746;28;20049;-85
2023/12/15 02:57:07;;;;;;;4.32;3.30;;;;;;;;;;5030787;28;20459;-86
2023/12/15 02:59:32;;;;;;;4.55;3.53;;;;;;;;;;5032565;28;20030;-86
2023/12/15 03:01:58;;;;;;;4.75;3.40;;;;;;;;;;5032976;28;20060;-86
2023/12/15 03:04:23;;;;;;;4.80;3.33;;;;;;;;;;5034797;28;20068;-85
2023/12/15 03:06:49;;;;;;;5.47;3.40;;;;;;;;;;5030985;28;20132;-86
2023/12/15 03:09:14;;;;;;;5.18;3.63;;;;;;;;;;5020992;28;20030;-87
2023/12/15 03:11:40;;;;;;;4.68;3.60;;;;;;;;;;4997709;28;20546;-86
2023/12/15 03:14:05;;;;;;;5.30;3.85;;;;;;;;;;5034757;28;20033;-85
2023/12/15 03:16:31;;;;;;;6.90;4.13;;;;;;;;;;5032956;28;20025;-86
2023/12/15 03:18:56;;;;;;;5.18;3.72;;;;;;;;;;5038600;28;20081;-86
2023/12/15 03:21:22;;;;;;;4.78;3.53;;;;;;;;;;5037893;28;20037;-85
2023/12/15 03:23:47;;;;;;;5.40;3.53;;;;;;;;;;5041390;28;20640;-86
2023/12/15 03:26:13;;;;;;;6.03;3.90;;;;;;;;;;5031617;28;20112;-86
2023/12/15 03:28:39;;;;;;;4.63;3.55;;;;;;;;;;5031335;28;20064;-85
2023/12/15 03:31:08;;;;;;;4.80;3.42;;;;;;;;;;5031259;28;20037;-84
2023/12/15 03:33:35;;;;;;;5.07;3.42;;;;;;;;;;5033847;28;20040;-85
2023/12/15 03:36:02;;;;;;;5.47;3.50;;;;;;;;;;5018726;28;20033;-85
2023/12/15 03:38:27;;;;;;;4.60;3.35;;;;;;;;;;5018099;28;20032;-85
2023/12/15 03:40:53;;;;;;;5.45;3.33;;;;;;;;;;5041096;28;20112;-86
2023/12/15 03:43:18;;;;;;;6.63;3.30;;;;;;;;;;5038903;28;20514;-86
2023/12/15 03:45:44;;;;;;;4.88;3.33;;;;;;;;;;5019814;28;20056;-86
2023/12/15 03:48:09;;;;;;;6.22;3.30;;;;;;;;;;5035399;28;20120;-85
2023/12/15 03:50:34;;;;;;;5.25;3.38;;;;;;;;;;5030415;28;20041;-85
2023/12/15 03:53:00;;;;;;;4.88;3.22;;;;;;;;;;5029468;28;20109;-86
2023/12/15 03:55:26;;;;;;;5.55;3.60;;;;;;;;;;5033371;28;20558;-86
2023/12/15 03:57:51;;;;;;;5.28;3.42;;;;;;;;;;5031939;28;20044;-84
2023/12/15 04:00:18;;;;;;;5.70;3.50;;;;;;;;;;5032284;28;20042;-87
2023/12/15 04:02:43;;;;;;;4.47;3.13;;;;;;;;;;5034235;28;20021;-87
2023/12/15 04:05:09;;;;;;;5.97;4.00;;;;;;;;;;5031059;28;20045;-87
2023/12/15 04:07:34;;;;;;;4.95;3.58;;;;;;;;;;5036669;28;20022;-88
2023/12/15 04:10:00;;;;;;;4.70;3.42;;;;;;;;;;5019463;28;20105;-86
2023/12/15 04:12:25;;;;;;;5.60;3.80;;;;;;;;;;5035495;28;20029;-87
2023/12/15 04:14:52;;;;;;;5.20;3.70;;;;;;;;;;5031782;28;20045;-86
2023/12/15 04:17:18;;;;;;;6.05;4.10;;;;;;;;;;5031208;28;20545;-86
2023/12/15 04:19:43;;;;;;;8.23;4.00;;;;;;;;;;5034701;28;20030;-87
2023/12/15 04:22:08;;;;;;;6.18;4.35;;;;;;;;;;5036267;28;20142;-86
2023/12/15 04:24:34;;;;;;;5.63;3.60;;;;;;;;;;5034309;28;20045;-85
2023/12/15 04:26:59;;;;;;;5.78;4.15;;;;;;;;;;5032082;28;20041;-86
2023/12/15 04:29:25;;;;;;;6.85;4.10;;;;;;;;;;5033680;28;20045;-85
2023/12/15 04:31:50;;;;;;;6.95;4.30;;;;;;;;;;5036251;28;20102;-85
2023/12/15 04:34:16;;;;;;;6.22;4.28;;;;;;;;;;5035302;28;20475;-86
2023/12/15 04:36:41;;;;;;;6.90;4.55;;;;;;;;;;5031260;28;20037;-85
2023/12/15 04:39:07;;;;;;;6.65;4.20;;;;;;;;;;5029643;28;20044;-86
2023/12/15 04:41:33;;;;;;;6.25;4.25;;;;;;;;;;5031945;28;20036;-86
2023/12/15 04:43:58;;;;;;;7.20;4.32;;;;;;;;;;5036238;28;20376;-86
2023/12/15 04:46:30;;;;;;;6.18;4.57;;;;;;;;;;5031243;28;20098;-86
2023/12/15 04:48:57;;;;;;;6.97;4.43;;;;;;;;;;5032023;28;20038;-85
2023/12/15 04:51:23;;;;;;;5.78;4.32;;;;;;;;;;5032957;28;20393;-85
2023/12/15 04:53:49;;;;;;;6.25;4.30;;;;;;;;;;5030266;28;20052;-86
2023/12/15 04:56:15;;;;;;;5.93;3.72;;;;;;;;;;5027949;28;20112;-86
2023/12/15 04:58:41;;;;;;;4.68;3.30;;;;;;;;;;5031284;28;20033;-86
2023/12/15 05:01:12;;;;;;;5.82;3.58;;;;;;;;;;5033149;28;20032;-87
2023/12/15 05:03:43;;;;;;;5.93;3.75;;;;;;;;;;5030898;28;20034;-86
2023/12/15 05:06:22;;;;;;;5.95;3.63;;;;;;;;;;5029585;28;20042;-86
2023/12/15 05:08:51;;;;;;;5.13;3.25;;;;;;;;;;5031658;28;20057;-86
2023/12/15 05:11:17;;;;;;;4.30;3.00;;;;;;;;;;5029862;28;20037;-85
2023/12/15 05:13:43;;;;;;;5.03;3.45;;;;;;;;;;5030337;28;20022;-85
2023/12/15 05:16:08;;;;;;;5.03;3.53;;;;;;;;;;5030459;28;20506;-86
2023/12/15 05:18:34;;;;;;;4.82;3.20;;;;;;;;;;5034672;28;20128;-86
2023/12/15 05:21:00;;;;;;;4.88;3.20;;;;;;;;;;5033165;28;20029;-86
2023/12/15 05:23:26;;;;;;;4.88;3.45;;;;;;;;;;5039451;28;20056;-87
2023/12/15 05:25:51;;;;;;;4.35;3.17;;;;;;;;;;5035830;28;20522;-86
2023/12/15 05:28:17;;;;;;;5.28;3.55;;;;;;;;;;5036228;28;20033;-85
2023/12/15 05:30:42;;;;;;;8.15;4.03;;;;;;;;;;5018182;28;20039;-86
2023/12/15 05:33:08;;;;;;;6.13;4.00;;;;;;;;;;5034979;28;20507;-85
2023/12/15 05:35:33;;;;;;;6.78;4.40;;;;;;;;;;5034920;28;20040;-86
2023/12/15 05:37:59;;;;;;;6.10;4.28;;;;;;;;;;5035567;28;20073;-85
2023/12/15 05:40:24;;;;;;;5.93;3.80;;;;;;;;;;5034469;28;20033;-86
2023/12/15 05:42:50;;;;;;;5.68;4.00;;;;;;;;;;5037845;28;20046;-86
2023/12/15 05:45:15;;;;;;;5.68;3.65;;;;;;;;;;5035132;28;20116;-86
2023/12/15 05:47:41;;;;;;;7.88;3.60;;;;;;;;;;5030775;28;20033;-86
2023/12/15 05:50:07;;;;;;;5.22;3.58;;;;;;;;;;5032794;28;20091;-84
2023/12/15 05:52:32;;;;;;;4.53;3.00;;;;;;;;;;5031785;28;20034;-86
2023/12/15 05:54:58;;;;;;;5.20;3.60;;;;;;;;;;5033119;28;20029;-86
2023/12/15 05:57:23;;;;;;;5.75;4.05;;;;;;;;;;5036601;28;20483;-85
2023/12/15 05:59:50;;;;;;;7.80;4.72;;;;;;;;;;5031269;28;20034;-87
2023/12/15 06:02:15;;;;;;;8.13;5.63;;;;;;;;;;5030883;28;20124;-86
2023/12/15 06:04:41;;;;;;;6.57;5.10;;;;;;;;;;5032004;28;20103;-86
2023/12/15 06:07:06;;;;;;;5.88;4.07;;;;;;;;;;5028583;28;20483;-85
2023/12/15 06:09:32;;;;;;;5.15;3.95;;;;;;;;;;5028604;28;20046;-85
2023/12/15 06:11:57;;;;;;;6.07;3.95;;;;;;;;;;5030143;28;20525;-87
2023/12/15 06:14:23;;;;;;;7.07;4.38;;;;;;;;;;5034439;28;20049;-87
2023/12/15 06:16:48;;;;;;;5.90;4.25;;;;;;;;;;5034780;28;20029;-87
2023/12/15 06:19:15;;;;;;;6.60;4.40;;;;;;;;;;5032557;28;20668;-87
2023/12/15 06:21:40;;;;;;;6.45;4.38;;;;;;;;;;5035270;28;20029;-86
2023/12/15 06:24:06;;;;;;;7.75;4.18;;;;;;;;;;5036348;28;20040;-86
2023/12/15 06:26:31;;;;;;;7.60;5.00;;;;;;;;;;5037656;28;20411;-87
2023/12/15 06:28:57;;;;;;;7.50;4.97;;;;;;;;;;5034667;28;20045;-87
2023/12/15 06:31:25;;;;;;;8.15;5.10;;;;;;;;;;5033677;28;20416;-88
2023/12/15 06:33:51;;;;;;;8.65;6.25;;;;;;;;;;5033774;28;20487;-86
2023/12/15 06:36:17;;;;;;;10.13;6.20;;;;;;;;;;5033660;28;20510;-87
2023/12/15 06:38:44;;;;;;;8.45;6.00;;;;;;;;;;5030883;28;20033;-86
2023/12/15 06:41:11;;;;;;;9.82;6.22;;;;;;;;;;5035386;28;20033;-86
2023/12/15 06:43:43;;;;;;;8.45;5.60;;;;;;;;;;5037521;28;20033;-86
2023/12/15 06:46:09;;;;;;;6.57;4.83;;;;;;;;;;5038713;28;20044;-85
2023/12/15 06:48:35;;;;;;;9.40;6.15;;;;;;;;;;5031644;28;20045;-85
2023/12/15 06:51:01;;;;;;;8.00;5.35;;;;;;;;;;5030095;28;20114;-85
2023/12/15 06:53:27;;;;;;;8.65;5.55;;;;;;;;;;5029648;28;20033;-87
2023/12/15 06:55:52;;;;;;;10.63;6.35;;;;;;;;;;5029268;28;20018;-87
2023/12/15 06:58:18;;;;;;;9.90;6.53;;;;;;;;;;5025097;28;20494;-87
2023/12/15 07:00:43;;;;;;;8.68;5.93;;;;;;;;;;5028111;28;20127;-85
2023/12/15 07:03:09;;;;;;;9.18;6.07;;;;;;;;;;5033645;28;20033;-85
2023/12/15 07:05:35;;;;;;;8.77;5.82;;;;;;;;;;5034996;28;20072;-86
2023/12/15 07:08:04;;;;;;;9.50;6.78;;;;;;;;;;5034924;28;20039;-87
2023/12/15 07:10:30;;;;;;;12.48;7.25;;;;;;;;;;5033675;28;20045;-84
2023/12/15 07:12:56;;;;;;;10.82;6.53;;;;;;;;;;5034048;28;20034;-87
2023/12/15 07:15:22;;;;;;;8.43;5.72;;;;;;;;;;5034555;28;20040;-85
2023/12/15 07:17:48;;;;;;;8.00;5.13;;;;;;;;;;5004035;28;20034;-85
2023/12/15 07:20:13;;;;;;;6.40;4.20;;;;;;;;;;5000020;28;20033;-86
2023/12/15 07:22:39;;;;;;;6.55;4.00;;;;;;;;;;5036860;28;20387;-86
2023/12/15 07:25:05;;;;;;;5.70;4.10;;;;;;;;;;5034819;28;20049;-86
2023/12/15 07:27:30;;;;;;;6.35;4.25;;;;;;;;;;5032095;28;20040;-86
2023/12/15 07:29:56;;;;;;;7.13;4.50;;;;;;;;;;5033223;28;20037;-87
2023/12/15 07:32:21;;;;;;;8.55;4.70;;;;;;;;;;5034654;28;20116;-88
2023/12/15 07:34:47;;;;;;;8.05;5.05;;;;;;;;;;5034087;28;20038;-86
2023/12/15 07:37:12;;;;;;;9.05;5.20;;;;;;;;;;5029958;28;20038;-87
2023/12/15 07:39:38;;;;;;;8.77;5.90;;;;;;;;;;5032760;28;20055;-85
2023/12/15 07:42:04;;;;;;;9.25;5.57;;;;;;;;;;5028639;28;20032;-83
2023/12/15 07:44:29;;;;;;;11.02;7.50;;;;;;;;;;5031109;28;20049;-87
2023/12/15 07:46:55;;;;;;;9.45;6.78;;;;;;;;;;5032181;28;20057;-86
2023/12/15 07:49:22;;;;;;;17.17;7.43;;;;;;;;;;5030427;28;20038;-86
2023/12/15 07:51:49;;;;;;;8.95;6.35;;;;;;;;;;5029205;28;20087;-86
2023/12/15 07:54:15;;;;;;;13.68;6.68;;;;;;;;;;5029810;28;20125;-86
2023/12/15 07:56:41;;;;;;;11.15;6.60;;;;;;;;;;5031257;28;20036;-85
2023/12/15 07:59:07;;;;;;;10.90;6.20;;;;;;;;;;5010440;28;20034;-86
2023/12/15 08:01:33;;;;;;;10.38;6.30;;;;;;;;;;5028698;28;20044;-87
2023/12/15 08:03:59;;;;;;;9.80;6.28;;;;;;;;;;5027808;28;20041;-87
2023/12/15 08:06:25;;;;;;;10.02;6.07;;;;;;;;;;5029459;28;20041;-86
2023/12/15 08:08:52;;;;;;;8.18;5.70;;;;;;;;;;5026442;28;20038;-87
2023/12/15 08:11:18;;;;;;;10.73;5.45;;;;;;;;;;5027806;28;20045;-85
2023/12/15 08:13:43;;;;;;;7.60;5.35;;;;;;;;;;5030145;28;20030;-87
2023/12/15 08:16:10;;;;;;;8.75;5.40;;;;;;;;;;5016621;28;20129;-86
2023/12/15 08:18:35;;;;;;;7.03;4.90;;;;;;;;;;5029812;28;20033;-85
2023/12/15 08:21:01;;;;;;;7.63;4.90;;;;;;;;;;5035549;28;20036;-86
2023/12/15 08:23:27;;;;;;;6.57;4.47;;;;;;;;;;5034729;28;20118;-86
2023/12/15 08:25:52;;;;;;;8.10;5.70;;;;;;;;;;5030711;28;20038;-85
2023/12/15 08:28:20;;;;;;;7.47;4.50;;;;;;;;;;5025443;28;20037;-87
2023/12/15 08:30:46;;;;;;;8.48;4.97;;;;;;;;;;5023091;28;20050;-85
2023/12/15 08:33:12;;;;;;;8.38;5.30;;;;;;;;;;5025157;28;20053;-85
2023/12/15 08:35:37;;;;;;;7.60;5.20;;;;;;;;;;5030301;28;20025;-86
2023/12/15 08:38:03;;;;;;;9.25;5.70;;;;;;;;;;5030406;28;20491;-85
2023/12/15 08:40:28;;;;;;;11.45;6.35;;;;;;;;;;5026730;28;20129;-87
2023/12/15 08:42:54;;;;;;;8.77;5.55;;;;;;;;;;5033228;28;20032;-86
2023/12/15 08:45:20;;;;;;;9.63;5.65;;;;;;;;;;5033909;28;20487;-87
2023/12/15 08:47:45;;;;;;;7.18;5.10;;;;;;;;;;5035520;28;20045;-87
2023/12/15 08:50:11;;;;;;;7.95;4.65;;;;;;;;;;5032956;28;20045;-86
2023/12/15 08:52:37;;;;;;;7.07;4.88;;;;;;;;;;5031189;28;20028;-88
2023/12/15 08:55:02;;;;;;;9.30;4.82;;;;;;;;;;5029949;28;20099;-88
2023/12/15 08:57:28;;;;;;;9.73;5.63;;;;;;;;;;5034370;28;20093;-89
2023/12/15 08:59:53;;;;;;;14.98;7.68;;;;;;;;;;5017537;28;20388;-87
2023/12/15 09:02:19;;;;;;;9.63;5.60;;;;;;;;;;5030961;28;20045;-87
2023/12/15 09:04:45;;;;;;;7.00;4.88;;;;;;;;;;5029781;28;20049;-89
2023/12/15 09:07:11;;;;;;;9.68;5.47;;;;;;;;;;5036950;28;20037;-87
2023/12/15 09:09:38;;;;;;;9.80;5.85;;;;;;;;;;5034093;28;20415;-87
2023/12/15 09:12:04;;;;;;;8.73;5.07;;;;;;;;;;5035089;28;20110;-87
2023/12/15 09:14:30;;;;;;;7.85;5.22;;;;;;;;;;5033277;28;20396;-86
2023/12/15 09:16:56;;;;;;;9.10;5.63;;;;;;;;;;5031660;28;20033;-87
2023/12/15 09:19:25;;;;;;;8.73;5.60;;;;;;;;;;5034061;28;20048;-86
2023/12/15 09:21:51;;;;;;;8.13;5.28;;;;;;;;;;5028052;28;20072;-86
2023/12/15 09:24:17;;;;;;;8.43;5.70;;;;;;;;;;5014414;28;20070;-90
2023/12/15 09:26:46;;;;;;;9.63;5.38;;;;;;;;;;5032790;28;20052;-87
2023/12/15 09:29:12;;;;;;;7.45;4.88;;;;;;;;;;5029049;28;20100;-86
2023/12/15 09:31:38;;;;;;;8.45;5.45;;;;;;;;;;5029314;28;20022;-86
2023/12/15 09:34:04;;;;;;;8.80;6.07;;;;;;;;;;5029915;28;20067;-87
2023/12/15 09:36:29;;;;;;;9.68;6.00;;;;;;;;;;5032455;28;20056;-87
2023/12/15 09:38:55;;;;;;;8.27;5.40;;;;;;;;;;5032298;28;20068;-87
2023/12/15 09:41:21;;;;;;;8.02;5.68;;;;;;;;;;5028098;28;20045;-85
2023/12/15 09:43:47;;;;;;;8.07;5.57;;;;;;;;;;5016823;28;20044;-87
2023/12/15 09:46:12;;;;;;;13.13;6.40;;;;;;;;;;5030729;28;20044;-88
2023/12/15 09:48:38;;;;;;;19.45;8.82;;;;;;;;;;5022231;28;20030;-84
2023/12/15 09:51:12;;;;;;;26.33;9.93;;;;;;;;;;5026159;28;20673;-88
2023/12/15 09:53:38;;;;;;;11.70;6.65;;;;;;;;;;5030759;28;20048;-87
2023/12/15 09:56:04;;;;;;;12.40;6.90;;;;;;;;;;5031280;28;20030;-88
2023/12/15 09:58:33;;;;;;;20.02;7.60;;;;;;;;;;5029203;28;20049;-86
2023/12/15 10:00:59;;;;;;;27.30;9.73;;;;;;;;;;5033996;28;20073;-85
2023/12/15 10:03:24;;;;;;;16.55;7.78;;;;;;;;;;5030376;28;20029;-88
2023/12/15 10:05:49;;;;;;;12.40;6.43;;;;;;;;;;5022118;28;20499;-85
2023/12/15 10:08:15;;;;;;;10.18;6.07;;;;;;;;;;5039161;28;20521;-85
2023/12/15 10:10:41;;;;;;;8.77;5.75;;;;;;;;;;5036513;28;20033;-86
2023/12/15 10:13:06;;;;;;;9.48;5.63;;;;;;;;;;5035203;28;20040;-85
2023/12/15 10:15:32;;;;;;;9.02;5.72;;;;;;;;;;5019002;28;20046;-85
2023/12/15 10:17:58;;;;;;;9.40;5.55;;;;;;;;;;5024068;28;20041;-86
2023/12/15 10:20:24;;;;;;;10.27;6.07;;;;;;;;;;5035307;28;20042;-87
2023/12/15 10:23:03;;;;;;;8.40;5.53;;;;;;;;;;5033005;28;20041;-86
2023/12/15 10:25:29;;;;;;;8.90;6.15;;;;;;;;;;5017101;28;20065;-86
2023/12/15 10:27:55;;;;;;;8.95;5.60;;;;;;;;;;5023241;28;20060;-86
2023/12/15 10:30:20;;;;;;;11.18;6.10;;;;;;;;;;5036094;28;20033;-86
2023/12/15 10:32:46;;;;;;;8.27;5.55;;;;;;;;;;5024598;28;20049;-86
2023/12/15 10:35:12;;;;;;;8.50;5.80;;;;;;;;;;5030418;28;20033;-86
2023/12/15 10:37:39;;;;;;;10.88;7.05;;;;;;;;;;5036089;28;20046;-86
2023/12/15 10:40:05;;;;;;;9.35;6.55;;;;;;;;;;5037186;28;20037;-86
2023/12/15 10:42:31;;;;;;;14.60;8.70;;;;;;;;;;5030511;28;20026;-87
2023/12/15 10:45:04;;;;;;;17.70;9.85;;;;;;;;;;5022566;28;20052;-85
2023/12/15 10:47:31;;;;;;;20.85;11.75;;;;;;;;;;5022698;28;20029;-89
2023/12/15 10:49:57;;;;;;;12.55;7.18;;;;;;;;;;5028399;28;20056;-86
2023/12/15 10:52:25;;;;;;;9.88;6.45;;;;;;;;;;5015730;28;20037;-85
2023/12/15 10:54:54;;;;;;;9.52;6.07;;;;;;;;;;5036077;28;20034;-86
2023/12/15 10:57:21;;;;;;;12.30;6.65;;;;;;;;;;5025937;28;20037;-85
2023/12/15 10:59:50;;;;;;;9.90;5.72;;;;;;;;;;5013746;28;20034;-87
2023/12/15 11:02:18;;;;;;;10.95;6.45;;;;;;;;;;5018321;28;20044;-86
2023/12/15 11:04:47;;;;;;;8.35;4.78;;;;;;;;;;5000802;28;20167;-89
2023/12/15 11:07:13;;;;;;;5.75;3.60;;;;;;;;;;5037031;28;20049;-89
2023/12/15 11:09:38;;;;;;;5.70;3.80;;;;;;;;;;5039466;28;20034;-86
2023/12/15 11:12:30;;;;;;;5.90;3.60;;;;;;;;;;5032658;28;20041;-88
2023/12/15 11:14:59;;;;;;;5.90;3.45;;;;;;;;;;5044384;28;20046;-88
2023/12/15 11:17:25;;;;;;;5.88;3.72;;;;;;;;;;5046720;28;20026;-87
2023/12/15 11:19:56;;;;;;;4.82;3.40;;;;;;;;;;5050403;28;20029;-86
2023/12/15 11:22:21;;;;;;;5.63;3.28;;;;;;;;;;5044391;28;20033;-87
2023/12/15 11:24:47;;;;;;;5.40;3.65;;;;;;;;;;5022265;28;20045;-88
2023/12/15 11:27:15;;;;;;;6.45;3.58;;;;;;;;;;5040839;28;20049;-89
2023/12/15 11:29:40;;;;;;;5.15;3.50;;;;;;;;;;5020505;28;20060;-86
2023/12/15 11:32:28;;;;;;;5.22;3.53;;;;;;;;;;5025791;28;20033;-89
2023/12/15 11:34:53;;;;;;;5.07;3.30;;;;;;;;;;5040841;28;20037;-88
2023/12/15 11:37:20;;;;;;;5.38;3.28;;;;;;;;;;5037191;28;20045;-87
2023/12/15 11:39:53;;;;;;;4.53;3.10;;;;;;;;;;5039069;28;20113;-87
2023/12/15 11:42:19;;;;;;;;;;;;;;;;;;5026181;28;20045;-87
2023/12/15 11:44:45;;;;;;;4.70;3.10;;;;;;;;;;5040944;28;20212;-87
2023/12/15 11:47:13;;;;;;;5.85;2.95;;;;;;;;;;5023250;28;20063;-87
2023/12/15 11:49:45;;;;;;;5.95;3.10;;;;;;;;;;5021555;28;20473;-88
2023/12/15 11:52:11;;;;;;;5.15;3.20;;;;;;;;;;5041440;28;20051;-87
2023/12/15 11:54:38;;;;;;;5.22;3.00;;;;;;;;;;5038653;28;20048;-89
2023/12/15 11:57:05;;;;;;;4.75;3.15;;;;;;;;;;5029738;28;20057;-85
2023/12/15 11:59:44;;;;;;;4.70;3.17;;;;;;;;;;5034808;28;20495;-87
2023/12/15 12:02:14;;;;;;;4.85;3.20;;;;;;;;;;5037266;28;20042;-88
2023/12/15 12:04:46;;;;;;;4.60;3.28;;;;;;;;;;5036246;28;20040;-90
2023/12/15 12:07:12;;;;;;;4.35;3.08;;;;;;;;;;5041676;28;20125;-89
2023/12/15 12:09:38;;;;;;;4.53;3.00;;;;;;;;;;5045735;28;20060;-86
2023/12/15 12:12:04;;;;;;;4.65;3.10;;;;;;;;;;5041264;28;20048;-92
2023/12/15 12:14:30;;;;;;;3.55;2.42;;;;;;;;;;5037314;28;20041;-88
2023/12/15 12:16:59;;;;;;;6.63;3.03;;;;;;;;;;5038422;28;20038;-87
2023/12/15 12:19:24;;;;;;;5.20;3.00;;;;;;;;;;5036870;28;20052;-87
2023/12/15 12:21:51;;;;;;;5.35;2.65;;;;;;;;;;5036333;28;20041;-88
2023/12/15 12:24:17;;;;;;;5.00;2.90;;;;;;;;;;5034674;28;20038;-88
2023/12/15 12:26:42;;;;;;;4.10;2.70;;;;;;;;;;5037091;28;20033;-88
2023/12/15 12:29:08;;;;;;;3.80;2.70;;;;;;;;;;5034761;28;20029;-88
2023/12/15 12:31:33;;;;;;;3.58;2.75;;;;;;;;;;5029661;28;20041;-88
2023/12/15 12:33:59;;;;;;;4.22;2.60;;;;;;;;;;5038976;28;20041;-88
2023/12/15 12:36:24;;;;;;;4.32;3.10;;;;;;;;;;5033600;28;20048;-87
2023/12/15 12:38:50;;;;;;;4.78;3.20;;;;;;;;;;5023903;28;20064;-88
2023/12/15 12:41:16;;;;;;;9.38;4.40;;;;;;;;;;5035730;28;20045;-89
2023/12/15 12:43:44;;;;;;;12.15;5.50;;;;;;;;;;5034255;28;20918;-88
2023/12/15 12:46:13;;;;;;;9.45;4.88;;;;;;;;;;5034605;28;20037;-90
2023/12/15 12:48:38;;;;;;;8.93;5.05;;;;;;;;;;5034790;28;20033;-88
2023/12/15 12:51:04;;;;;;;4.75;3.22;;;;;;;;;;5030674;28;20033;-88
2023/12/15 12:53:29;;;;;;;4.28;2.78;;;;;;;;;;5031761;28;20038;-90
2023/12/15 12:55:55;;;;;;;4.32;2.67;;;;;;;;;;5032829;28;20048;-87
2023/12/15 12:58:20;;;;;;;3.72;2.90;;;;;;;;;;5032100;28;20091;-83
2023/12/15 13:00:51;;;;;;;3.97;2.92;;;;;;;;;;5034316;28;20033;-87
2023/12/15 13:03:18;;;;;;;5.60;3.35;;;;;;;;;;5024437;28;20512;-89
2023/12/15 13:05:43;;;;;;;4.55;3.28;;;;;;;;;;5025892;28;20025;-89
2023/12/15 13:08:09;;;;;;;5.93;3.60;;;;;;;;;;5027556;28;20046;-88
2023/12/15 13:10:35;;;;;;;15.82;8.60;;;;;;;;;;5029162;28;20138;-89
2023/12/15 13:13:02;;;;;;;6.22;4.20;;;;;;;;;;5032100;28;20050;-89
2023/12/15 13:15:27;;;;;;;5.60;3.60;;;;;;;;;;5031802;28;20100;-89
2023/12/15 13:17:55;;;;;;;5.65;3.45;;;;;;;;;;5030263;28;20112;-90
2023/12/15 13:20:22;;;;;;;5.28;3.80;;;;;;;;;;5029479;28;20084;-89
2023/12/15 13:22:47;;;;;;;6.97;4.07;;;;;;;;;;5031378;28;20041;-89
2023/12/15 13:25:13;;;;;;;6.55;4.10;;;;;;;;;;5025469;28;20109;-89
2023/12/15 13:27:39;;;;;;;4.40;2.78;;;;;;;;;;5028267;28;20036;-89
2023/12/15 13:30:05;;;;;;;5.85;3.75;;;;;;;;;;5023794;28;20093;-88
2023/12/15 13:32:30;;;;;;;5.20;3.10;;;;;;;;;;5030246;28;20038;-89
2023/12/15 13:34:56;;;;;;;5.05;3.00;;;;;;;;;;5027229;28;20045;-89
2023/12/15 13:37:21;;;;;;;4.72;3.20;;;;;;;;;;5031380;28;20041;-89
2023/12/15 13:39:47;;;;;;;4.10;2.70;;;;;;;;;;5037523;28;20033;-87
2023/12/15 13:42:13;;;;;;;4.53;3.10;;;;;;;;;;5036399;28;20048;-85
2023/12/15 13:44:39;;;;;;;3.15;2.00;;;;;;;;;;5033515;28;20617;-85
2023/12/15 13:47:04;;;;;;;6.10;3.25;;;;;;;;;;5028835;28;20036;-85
2023/12/15 13:49:31;;;;;;;7.70;4.88;;;;;;;;;;5029034;28;20049;-86
2023/12/15 13:51:57;;;;;;;7.70;5.10;;;;;;;;;;5024745;28;20053;-84
2023/12/15 13:54:23;;;;;;;9.60;5.97;;;;;;;;;;5030857;28;20077;-84
2023/12/15 13:56:48;;;;;;;10.88;6.22;;;;;;;;;;5031334;28;20037;-83
2023/12/15 13:59:14;;;;;;;9.05;5.53;;;;;;;;;;5035132;28;20550;-85
2023/12/15 14:01:39;;;;;;;7.32;4.60;;;;;;;;;;5038839;28;20068;-85
2023/12/15 14:04:07;;;;;;;8.95;5.80;;;;;;;;;;5035706;28;20207;-85
2023/12/15 14:06:33;;;;;;;9.55;6.18;;;;;;;;;;5036354;28;20045;-86
2023/12/15 14:08:59;;;;;;;10.00;5.60;;;;;;;;;;5038797;28;20049;-85
2023/12/15 14:11:25;;;;;;;6.70;4.47;;;;;;;;;;5035334;28;20037;-86
2023/12/15 14:13:50;;;;;;;12.85;6.47;;;;;;;;;;5034663;28;20042;-86
2023/12/15 14:16:17;;;;;;;9.25;5.30;;;;;;;;;;5041892;28;20052;-86
2023/12/15 14:18:43;;;;;;;9.05;4.53;;;;;;;;;;5045129;28;20675;-86
2023/12/15 14:21:08;;;;;;;8.20;4.93;;;;;;;;;;5040315;28;20041;-84
2023/12/15 14:23:34;;;;;;;7.68;5.10;;;;;;;;;;5042504;28;20046;-84
2023/12/15 14:25:59;;;;;;;9.13;5.63;;;;;;;;;;5035858;28;20045;-85
2023/12/15 14:28:25;;;;;;;7.18;4.75;;;;;;;;;;5035001;28;20048;-87
2023/12/15 14:30:51;;;;;;;11.55;5.85;;;;;;;;;;5038765;28;20041;-87
2023/12/15 14:33:17;;;;;;;7.05;4.60;;;;;;;;;;5036930;28;20044;-88
2023/12/15 14:35:42;;;;;;;8.25;5.72;;;;;;;;;;5038702;28;20033;-86